createdAt,value
2022-08-22T00:01:10.842Z,18.81
2022-08-22T00:02:42.336Z,19.92
2022-08-22T00:02:43.199Z,19.86
2022-08-22T00:02:43.622Z,19.33
2022-08-22T00:02:45.175Z,20.12
2022-08-22T00:02:47.573Z,20.26
2022-08-22T00:02:58.075Z,18.93
2022-08-22T00:03:33.529Z,18.81
2022-08-22T00:06:11.836Z,18.85
2022-08-22T00:09:18.661Z,18.82
2022-08-22T00:11:54.441Z,18.95
2022-08-22T00:14:32.431Z,18.85
2022-08-22T00:17:03.141Z,18.88
2022-08-22T00:19:42.077Z,18.84
2022-08-22T00:22:26.320Z,18.79
2022-08-22T00:24:58.201Z,18.89
2022-08-22T00:27:29.504Z,18.92
2022-08-22T00:30:09.852Z,18.95
2022-08-22T00:32:39.893Z,18.93
2022-08-22T00:35:14.119Z,18.95
2022-08-22T00:37:47.638Z,18.88
2022-08-22T00:40:19.006Z,18.93
2022-08-22T00:43:02.872Z,18.93
2022-08-22T00:46:03.118Z,18.96
2022-08-22T00:48:44.657Z,18.93
2022-08-22T00:51:18.980Z,18.89
2022-08-22T00:54:19.608Z,18.86
2022-08-22T00:57:30.215Z,18.89
2022-08-22T01:00:14.099Z,18.95
2022-08-22T01:02:36.637Z,18.93
2022-08-22T01:05:22.722Z,18.95
2022-08-22T01:08:14.503Z,18.89
2022-08-22T01:10:42.732Z,18.81
2022-08-22T01:13:36.632Z,18.84
2022-08-22T01:16:17.760Z,18.82
2022-08-22T01:19:06.760Z,18.88
2022-08-22T01:22:03.356Z,18.77
2022-08-22T01:25:16.268Z,18.82
2022-08-22T01:28:08.071Z,18.82
2022-08-22T01:31:02.131Z,18.85
2022-08-22T01:33:58.596Z,18.82
2022-08-22T01:36:40.858Z,18.89
2022-08-22T01:39:52.232Z,18.81
2022-08-22T01:42:53.604Z,18.84
2022-08-22T01:45:59.908Z,18.93
2022-08-22T01:48:38.815Z,18.86
2022-08-22T01:51:33.876Z,18.81
2022-08-22T01:54:13.512Z,18.86
2022-08-22T01:56:42.706Z,18.91
2022-08-22T01:59:15.012Z,18.91
2022-08-22T02:01:55.197Z,18.91
2022-08-22T02:04:48.031Z,18.92
2022-08-22T02:07:19.928Z,18.95
2022-08-22T02:10:10.698Z,18.96
2022-08-22T02:12:47.856Z,18.91
2022-08-22T02:15:21.259Z,18.98
2022-08-22T02:17:56.473Z,18.96
2022-08-22T02:20:27.501Z,19.00
2022-08-22T02:23:06.258Z,19.04
2022-08-22T02:25:35.071Z,19.03
2022-08-22T02:28:06.849Z,19.00
2022-08-22T02:30:55.064Z,18.95
2022-08-22T02:33:38.604Z,18.93
2022-08-22T02:36:14.567Z,18.88
2022-08-22T02:38:48.190Z,18.89
2022-08-22T02:41:21.899Z,18.81
2022-08-22T02:43:57.347Z,18.79
2022-08-22T02:46:38.410Z,18.76
2022-08-22T02:49:03.844Z,18.77
2022-08-22T02:51:48.410Z,18.75
2022-08-22T02:54:27.879Z,18.75
2022-08-22T02:57:01.770Z,18.75
2022-08-22T02:59:27.500Z,18.81
2022-08-22T03:01:51.269Z,18.85
2022-08-22T03:04:31.831Z,18.91
2022-08-22T03:07:18.567Z,18.92
2022-08-22T03:10:18.456Z,18.89
2022-08-22T03:13:06.727Z,18.92
2022-08-22T03:15:32.126Z,18.92
2022-08-22T03:18:12.822Z,18.92
2022-08-22T03:20:41.147Z,18.81
2022-08-22T03:23:28.887Z,18.76
2022-08-22T03:26:09.468Z,18.72
2022-08-22T03:29:13.455Z,18.81
2022-08-22T03:31:39.221Z,18.84
2022-08-22T03:34:22.367Z,18.98
2022-08-22T03:36:56.956Z,18.85
2022-08-22T03:39:37.826Z,18.81
2022-08-22T03:42:21.921Z,18.88
2022-08-22T03:45:06.862Z,18.99
2022-08-22T03:48:00.330Z,18.92
2022-08-22T03:50:46.136Z,18.72
2022-08-22T03:53:46.060Z,18.65
2022-08-22T03:56:39.540Z,18.49
2022-08-22T03:59:02.415Z,18.44
2022-08-22T04:01:51.549Z,18.57
2022-08-22T04:04:51.839Z,18.55
2022-08-22T04:07:42.807Z,18.52
2022-08-22T04:10:31.149Z,18.68
2022-08-22T04:13:16.177Z,18.65
2022-08-22T04:16:10.764Z,18.65
2022-08-22T04:18:42.186Z,18.59
2022-08-22T04:21:35.841Z,18.59
2022-08-22T04:24:17.118Z,18.86
2022-08-22T04:26:58.162Z,19.06
2022-08-22T04:29:43.749Z,19.02
2022-08-22T04:32:12.710Z,18.95
2022-08-22T04:34:43.342Z,18.89
2022-08-22T04:37:14.721Z,18.84
2022-08-22T04:39:50.626Z,18.91
2022-08-22T04:42:32.704Z,19.00
2022-08-22T04:45:17.979Z,18.91
2022-08-22T04:47:49.730Z,19.02
2022-08-22T04:50:41.210Z,18.95
2022-08-22T04:53:08.312Z,19.03
2022-08-22T04:55:44.995Z,19.02
2022-08-22T04:58:28.757Z,19.04
2022-08-22T05:01:09.931Z,19.12
2022-08-22T05:03:39.914Z,19.16
2022-08-22T05:06:06.932Z,19.27
2022-08-22T05:08:33.634Z,19.33
2022-08-22T05:10:58.435Z,19.43
2022-08-22T05:13:30.876Z,19.44
2022-08-22T05:15:59.520Z,19.30
2022-08-22T05:18:29.828Z,19.33
2022-08-22T05:20:54.031Z,19.31
2022-08-22T05:23:31.034Z,19.41
2022-08-22T05:26:02.645Z,19.50
2022-08-22T05:28:52.626Z,19.64
2022-08-22T05:31:23.215Z,19.74
2022-08-22T05:33:55.165Z,19.72
2022-08-22T05:36:40.860Z,19.68
2022-08-22T05:39:17.603Z,19.85
2022-08-22T05:41:41.456Z,19.85
2022-08-22T05:44:06.224Z,19.89
2022-08-22T05:46:41.560Z,20.04
2022-08-22T05:49:06.252Z,20.22
2022-08-22T05:51:37.943Z,20.36
2022-08-22T05:54:34.407Z,20.51
2022-08-22T05:57:13.896Z,20.53
2022-08-22T05:59:41.543Z,20.61
2022-08-22T06:02:25.120Z,20.50
2022-08-22T06:04:54.695Z,20.53
2022-08-22T06:07:26.566Z,20.58
2022-08-22T06:10:11.647Z,20.65
2022-08-22T06:12:44.895Z,20.81
2022-08-22T06:15:15.755Z,21.01
2022-08-22T06:17:49.479Z,21.29
2022-08-22T06:20:21.113Z,21.50
2022-08-22T06:22:58.719Z,21.56
2022-08-22T06:25:29.748Z,21.80
2022-08-22T06:27:53.973Z,21.78
2022-08-22T06:30:17.867Z,22.00
2022-08-22T06:32:59.985Z,22.09
2022-08-22T06:36:09.086Z,22.12
2022-08-22T06:38:39.980Z,22.25
2022-08-22T06:41:06.831Z,22.25
2022-08-22T06:43:38.593Z,22.34
2022-08-22T06:46:01.507Z,22.62
2022-08-22T06:48:24.629Z,22.49
2022-08-22T06:50:53.055Z,22.43
2022-08-22T06:53:19.421Z,22.74
2022-08-22T06:55:48.174Z,22.55
2022-08-22T06:58:47.829Z,22.63
2022-08-22T07:01:21.621Z,22.59
2022-08-22T07:03:49.872Z,22.72
2022-08-22T07:06:32.080Z,22.93
2022-08-22T07:08:55.934Z,23.06
2022-08-22T07:11:31.649Z,23.39
2022-08-22T07:13:58.548Z,23.55
2022-08-22T07:16:43.379Z,23.70
2022-08-22T07:19:06.836Z,23.68
2022-08-22T07:21:42.896Z,23.85
2022-08-22T07:24:05.708Z,23.76
2022-08-22T07:26:33.874Z,23.39
2022-08-22T07:29:11.334Z,23.03
2022-08-22T07:31:44.125Z,23.01
2022-08-22T07:34:32.306Z,23.28
2022-08-22T07:37:26.219Z,23.39
2022-08-22T07:39:55.718Z,23.41
2022-08-22T07:42:34.304Z,23.44
2022-08-22T07:45:07.671Z,23.54
2022-08-22T07:47:50.363Z,23.80
2022-08-22T07:50:20.211Z,24.16
2022-08-22T07:52:45.778Z,24.37
2022-08-22T07:55:24.396Z,24.40
2022-08-22T07:57:55.674Z,24.10
2022-08-22T08:00:21.347Z,24.16
2022-08-22T08:02:51.056Z,24.40
2022-08-22T08:05:15.075Z,24.20
2022-08-22T08:07:42.612Z,24.16
2022-08-22T08:10:12.469Z,23.70
2022-08-22T08:12:41.106Z,23.56
2022-08-22T08:15:07.467Z,23.77
2022-08-22T08:17:34.524Z,24.14
2022-08-22T08:20:00.059Z,24.30
2022-08-22T08:22:26.103Z,24.40
2022-08-22T08:24:50.475Z,23.61
2022-08-22T08:27:34.895Z,23.89
2022-08-22T08:30:01.954Z,23.42
2022-08-22T08:32:28.289Z,23.15
2022-08-22T08:34:52.209Z,23.24
2022-08-22T08:37:32.149Z,23.62
2022-08-22T08:39:59.064Z,23.82
2022-08-22T08:43:02.070Z,23.93
2022-08-22T08:45:42.556Z,23.86
2022-08-22T08:48:05.103Z,23.92
2022-08-22T08:50:46.438Z,24.28
2022-08-22T08:56:25.929Z,24.68
2022-08-22T08:58:56.184Z,25.31
2022-08-22T09:01:36.205Z,25.46
2022-08-22T09:04:36.628Z,24.45
2022-08-22T09:07:27.047Z,24.78
2022-08-22T09:10:14.016Z,24.68
2022-08-22T09:13:12.154Z,24.48
2022-08-22T09:16:12.363Z,24.58
2022-08-22T09:18:54.199Z,24.50
2022-08-22T09:21:47.139Z,24.40
2022-08-22T09:24:34.493Z,24.25
2022-08-22T09:27:29.909Z,24.16
2022-08-22T09:30:11.805Z,23.86
2022-08-22T09:33:09.741Z,23.85
2022-08-22T09:36:05.364Z,23.75
2022-08-22T09:39:03.483Z,23.75
2022-08-22T09:41:40.420Z,23.69
2022-08-22T09:44:40.959Z,23.69
2022-08-22T09:47:15.442Z,23.63
2022-08-22T09:50:10.284Z,23.73
2022-08-22T09:52:51.574Z,23.62
2022-08-22T09:55:42.263Z,23.61
2022-08-22T09:58:32.700Z,23.54
2022-08-22T10:01:00.681Z,23.55
2022-08-22T10:03:58.342Z,23.41
2022-08-22T10:06:45.333Z,23.65
2022-08-22T10:09:19.739Z,24.06
2022-08-22T10:11:50.139Z,24.34
2022-08-22T10:14:28.165Z,24.61
2022-08-22T10:17:07.141Z,24.69
2022-08-22T10:19:36.342Z,24.73
2022-08-22T10:22:30.308Z,24.50
2022-08-22T10:25:23.199Z,24.34
2022-08-22T10:27:54.984Z,24.35
2022-08-22T10:30:23.998Z,24.33
2022-08-22T10:33:03.555Z,24.14
2022-08-22T10:35:37.764Z,24.16
2022-08-22T10:38:06.648Z,24.42
2022-08-22T10:40:39.878Z,24.61
2022-08-22T10:43:11.575Z,24.81
2022-08-22T10:45:37.485Z,24.89
2022-08-22T10:48:08.999Z,24.75
2022-08-22T10:50:37.956Z,24.73
2022-08-22T10:53:32.700Z,24.68
2022-08-22T10:56:08.621Z,24.92
2022-08-22T10:58:58.321Z,25.24
2022-08-22T11:01:37.515Z,25.40
2022-08-22T11:04:41.395Z,25.22
2022-08-22T11:07:48.580Z,25.50
2022-08-22T11:10:48.987Z,25.57
2022-08-22T11:13:38.225Z,25.58
2022-08-22T11:16:26.162Z,25.48
2022-08-22T11:19:14.663Z,25.53
2022-08-22T11:22:00.224Z,25.77
2022-08-22T11:24:36.777Z,25.82
2022-08-22T11:27:20.970Z,25.74
2022-08-22T11:29:56.613Z,25.33
2022-08-22T11:32:47.825Z,25.44
2022-08-22T11:36:06.302Z,25.47
2022-08-22T11:38:53.546Z,25.43
2022-08-22T11:41:31.483Z,25.60
2022-08-22T11:44:25.597Z,25.36
2022-08-22T11:46:51.177Z,25.71
2022-08-22T11:49:35.355Z,25.33
2022-08-22T11:52:26.581Z,25.44
2022-08-22T11:55:17.955Z,25.47
2022-08-22T11:57:44.331Z,25.24
2022-08-22T12:00:23.589Z,25.34
2022-08-22T12:02:55.263Z,25.12
2022-08-22T12:05:26.460Z,25.61
2022-08-22T12:08:30.424Z,25.81
2022-08-22T12:11:09.850Z,25.94
2022-08-22T12:14:02.323Z,25.61
2022-08-22T12:16:47.350Z,24.45
2022-08-22T12:19:23.455Z,24.47
2022-08-22T12:22:33.528Z,24.35
2022-08-22T12:25:17.995Z,24.30
2022-08-22T12:28:17.268Z,24.20
2022-08-22T12:31:06.639Z,24.07
2022-08-22T12:33:38.041Z,24.02
2022-08-22T12:36:18.378Z,23.76
2022-08-22T12:38:57.648Z,23.76
2022-08-22T12:42:00.968Z,23.73
2022-08-22T12:44:32.422Z,23.73
2022-08-22T12:46:55.168Z,23.77
2022-08-22T12:49:36.878Z,23.63
2022-08-22T12:52:21.322Z,23.58
2022-08-22T12:55:01.187Z,23.70
2022-08-22T12:57:39.115Z,23.79
2022-08-22T13:00:40.378Z,24.13
2022-08-22T13:03:09.928Z,24.21
2022-08-22T13:05:40.533Z,24.27
2022-08-22T13:08:10.119Z,24.25
2022-08-22T13:10:38.174Z,24.33
2022-08-22T13:13:03.909Z,24.42
2022-08-22T13:16:05.034Z,24.41
2022-08-22T13:18:36.556Z,24.73
2022-08-22T13:21:04.040Z,24.99
2022-08-22T13:23:39.505Z,24.99
2022-08-22T13:26:08.147Z,25.13
2022-08-22T13:28:40.389Z,25.06
2022-08-22T13:31:04.381Z,24.95
2022-08-22T13:33:33.136Z,25.00
2022-08-22T13:36:13.475Z,25.19
2022-08-22T13:38:54.828Z,25.36
2022-08-22T13:41:29.656Z,25.64
2022-08-22T13:44:07.499Z,25.55
2022-08-22T13:46:31.548Z,25.23
2022-08-22T13:49:01.665Z,25.41
2022-08-22T13:51:45.291Z,25.54
2022-08-22T13:54:12.454Z,25.33
2022-08-22T13:56:47.220Z,25.44
2022-08-22T13:59:47.173Z,25.36
2022-08-22T14:02:18.121Z,25.23
2022-08-22T14:04:43.939Z,25.00
2022-08-22T14:07:06.460Z,24.93
2022-08-22T14:09:54.616Z,24.86
2022-08-22T14:13:16.737Z,24.75
2022-08-22T14:15:45.795Z,24.73
2022-08-22T14:18:15.428Z,24.73
2022-08-22T14:20:42.788Z,24.57
2022-08-22T14:23:16.196Z,24.51
2022-08-22T14:25:41.831Z,24.24
2022-08-22T14:28:09.330Z,24.10
2022-08-22T14:30:38.797Z,24.10
2022-08-22T14:33:41.887Z,24.03
2022-08-22T14:36:23.629Z,23.83
2022-08-22T14:38:57.145Z,23.75
2022-08-22T14:41:25.389Z,23.70
2022-08-22T14:44:02.467Z,23.62
2022-08-22T14:46:30.319Z,23.38
2022-08-22T14:49:14.672Z,23.27
2022-08-22T14:51:39.525Z,23.22
2022-08-22T14:54:14.316Z,23.14
2022-08-22T14:56:46.432Z,23.07
2022-08-22T14:59:14.926Z,23.01
2022-08-22T15:01:55.542Z,23.01
2022-08-22T15:04:26.647Z,22.82
2022-08-22T15:06:58.509Z,22.77
2022-08-22T15:09:57.504Z,22.86
2022-08-22T15:12:30.812Z,22.87
2022-08-22T15:14:58.327Z,22.93
2022-08-22T15:17:43.972Z,23.03
2022-08-22T15:20:13.468Z,22.90
2022-08-22T15:22:36.975Z,22.89
2022-08-22T15:25:25.735Z,22.93
2022-08-22T15:28:05.147Z,22.96
2022-08-22T15:30:57.815Z,22.86
2022-08-22T15:33:32.296Z,22.69
2022-08-22T15:36:08.961Z,22.60
2022-08-22T15:38:38.023Z,22.60
2022-08-22T15:41:31.181Z,22.66
2022-08-22T15:44:06.411Z,22.48
2022-08-22T15:46:34.163Z,22.42
2022-08-22T15:49:04.848Z,22.36
2022-08-22T15:52:07.716Z,22.42
2022-08-22T15:54:46.969Z,22.34
2022-08-22T15:57:18.653Z,22.34
2022-08-22T15:59:53.791Z,22.32
2022-08-22T16:02:35.535Z,22.31
2022-08-22T16:05:20.695Z,22.34
2022-08-22T16:07:46.232Z,22.28
2022-08-22T16:13:38.187Z,22.22
2022-08-22T16:16:19.526Z,22.21
2022-08-22T16:18:44.315Z,22.05
2022-08-22T16:21:12.072Z,22.07
2022-08-22T16:23:51.075Z,21.98
2022-08-22T16:26:15.580Z,21.90
2022-08-22T16:29:03.851Z,21.87
2022-08-22T16:31:47.044Z,21.90
2022-08-22T16:34:16.240Z,21.90
2022-08-22T16:37:02.945Z,21.67
2022-08-22T16:39:25.566Z,21.74
2022-08-22T16:41:54.269Z,21.73
2022-08-22T16:44:28.883Z,21.67
2022-08-22T16:46:53.855Z,21.57
2022-08-22T16:49:29.632Z,21.45
2022-08-22T16:52:29.822Z,21.30
2022-08-22T16:55:00.035Z,21.18
2022-08-22T16:57:59.317Z,21.08
2022-08-22T17:00:33.080Z,20.91
2022-08-22T17:03:18.138Z,20.87
2022-08-22T17:05:53.949Z,20.67
2022-08-22T17:08:25.701Z,20.60
2022-08-22T17:11:20.923Z,20.51
2022-08-22T17:14:11.308Z,20.47
2022-08-22T17:17:00.802Z,20.37
2022-08-22T17:19:31.337Z,20.39
2022-08-22T17:21:59.082Z,20.27
2022-08-22T17:24:41.671Z,20.22
2022-08-22T17:27:32.380Z,20.19
2022-08-22T17:30:07.139Z,20.08
2022-08-22T17:32:59.755Z,20.02
2022-08-22T17:35:56.967Z,20.05
2022-08-22T17:38:40.962Z,20.10
2022-08-22T17:41:13.630Z,20.02
2022-08-22T17:43:59.951Z,19.99
2022-08-22T17:46:39.586Z,20.00
2022-08-22T17:49:35.996Z,20.00
2022-08-22T17:52:22.168Z,19.95
2022-08-22T17:55:02.000Z,19.96
2022-08-22T17:57:27.613Z,20.00
2022-08-22T17:59:56.417Z,20.00
2022-08-22T18:02:26.511Z,20.04
2022-08-22T18:05:10.357Z,20.02
2022-08-22T18:07:49.341Z,20.06
2022-08-22T18:10:15.007Z,19.98
2022-08-22T18:12:45.684Z,19.99
2022-08-22T18:15:20.107Z,19.96
2022-08-22T18:18:06.969Z,19.89
2022-08-22T18:20:48.370Z,19.92
2022-08-22T18:23:35.678Z,19.93
2022-08-22T18:26:33.872Z,19.86
2022-08-22T18:29:08.655Z,19.88
2022-08-22T18:31:54.659Z,19.86
2022-08-22T18:34:32.483Z,19.88
2022-08-22T18:37:07.745Z,19.92
2022-08-22T18:39:56.191Z,19.83
2022-08-22T18:42:48.473Z,19.89
2022-08-22T18:45:44.227Z,19.85
2022-08-22T18:48:07.489Z,19.82
2022-08-22T18:50:33.382Z,19.81
2022-08-22T18:52:57.461Z,19.88
2022-08-22T18:55:31.485Z,19.77
2022-08-22T18:57:54.075Z,19.79
2022-08-22T19:00:21.927Z,19.75
2022-08-22T19:03:04.255Z,19.71
2022-08-22T19:05:42.157Z,19.72
2022-08-22T19:08:29.164Z,19.74
2022-08-22T19:10:54.954Z,19.75
2022-08-22T19:13:58.095Z,19.74
2022-08-22T19:16:29.640Z,19.72
2022-08-22T19:19:01.639Z,19.74
2022-08-22T19:21:47.493Z,19.78
2022-08-22T19:24:33.009Z,19.75
2022-08-22T19:27:07.605Z,19.72
2022-08-22T19:29:30.148Z,19.74
2022-08-22T19:32:01.962Z,19.70
2022-08-22T19:34:28.639Z,19.62
2022-08-22T19:37:32.188Z,19.53
2022-08-22T19:40:08.145Z,19.50
2022-08-22T19:42:34.848Z,19.50
2022-08-22T19:45:00.064Z,19.53
2022-08-22T19:47:26.805Z,19.61
2022-08-22T19:50:10.384Z,19.53
2022-08-22T19:52:56.415Z,19.55
2022-08-22T19:55:18.958Z,19.50
2022-08-22T19:57:46.135Z,19.47
2022-08-22T20:00:13.532Z,19.47
2022-08-22T20:02:49.453Z,19.53
2022-08-22T20:05:47.532Z,19.53
2022-08-22T20:08:44.016Z,19.49
2022-08-22T20:11:30.039Z,19.54
2022-08-22T20:14:11.463Z,19.53
2022-08-22T20:16:58.540Z,19.54
2022-08-22T20:19:21.701Z,19.64
2022-08-22T20:21:58.139Z,19.64
2022-08-22T20:24:40.171Z,19.64
2022-08-22T20:27:14.836Z,19.62
2022-08-22T20:29:43.041Z,19.55
2022-08-22T20:32:06.457Z,19.60
2022-08-22T20:34:34.457Z,19.60
2022-08-22T20:37:22.723Z,19.61
2022-08-22T20:39:59.016Z,19.57
2022-08-22T20:42:22.612Z,19.53
2022-08-22T20:44:53.468Z,19.57
2022-08-22T20:47:24.099Z,19.60
2022-08-22T20:49:50.661Z,19.55
2022-08-22T20:52:32.449Z,19.54
2022-08-22T20:55:03.890Z,19.54
2022-08-22T20:57:27.105Z,19.58
2022-08-22T21:00:20.330Z,19.47
2022-08-22T21:03:32.045Z,19.43
2022-08-22T21:05:54.658Z,19.34
2022-08-22T21:08:26.339Z,19.34
2022-08-22T21:11:22.681Z,19.23
2022-08-22T21:13:45.507Z,19.31
2022-08-22T21:16:30.728Z,19.28
2022-08-22T21:18:55.524Z,19.31
2022-08-22T21:21:29.338Z,19.12
2022-08-22T21:24:00.034Z,19.07
2022-08-22T21:26:36.631Z,19.04
2022-08-22T21:29:02.122Z,18.96
2022-08-22T21:31:28.294Z,18.99
2022-08-22T21:33:52.675Z,19.02
2022-08-22T21:36:19.401Z,19.00
2022-08-22T21:39:06.885Z,18.95
2022-08-22T21:41:48.520Z,19.06
2022-08-22T21:44:41.536Z,19.07
2022-08-22T21:47:38.297Z,19.09
2022-08-22T21:50:05.883Z,19.20
2022-08-22T21:52:29.931Z,19.22
2022-08-22T21:54:52.438Z,19.22
2022-08-22T21:57:18.395Z,19.28
2022-08-22T21:59:51.497Z,19.28
2022-08-22T22:02:37.829Z,19.30
2022-08-22T22:05:09.292Z,19.31
2022-08-22T22:07:31.943Z,19.37
2022-08-22T22:09:55.203Z,19.35
2022-08-22T22:12:18.027Z,19.38
2022-08-22T22:14:45.943Z,19.27
2022-08-22T22:17:08.856Z,19.38
2022-08-22T22:19:31.842Z,19.41
2022-08-22T22:21:54.435Z,19.41
2022-08-22T22:24:17.299Z,19.43
2022-08-22T22:26:39.866Z,19.44
2022-08-22T22:29:02.780Z,19.46
2022-08-22T22:31:25.469Z,19.41
2022-08-22T22:33:48.021Z,19.43
2022-08-22T22:36:25.329Z,19.34
2022-08-22T22:38:48.535Z,19.37
2022-08-22T22:41:14.480Z,19.37
2022-08-22T22:43:38.075Z,19.30
2022-08-22T22:46:00.676Z,19.28
2022-08-22T22:48:24.813Z,19.24
2022-08-22T22:50:47.539Z,19.34
2022-08-22T22:53:11.691Z,19.26
2022-08-22T22:55:42.258Z,19.23
2022-08-22T22:58:05.163Z,19.33
2022-08-22T23:00:31.148Z,19.27
2022-08-22T23:02:53.914Z,19.30
2022-08-22T23:05:16.670Z,19.31
2022-08-22T23:07:39.792Z,19.34
2022-08-22T23:10:05.236Z,19.27
2022-08-22T23:12:28.944Z,19.20
2022-08-22T23:14:51.949Z,19.24
2022-08-22T23:17:15.812Z,19.24
2022-08-22T23:19:39.041Z,19.28
2022-08-22T23:22:02.297Z,19.35
2022-08-22T23:24:27.943Z,19.34
2022-08-22T23:26:50.580Z,19.34
2022-08-22T23:29:13.239Z,19.33
2022-08-22T23:31:49.014Z,19.28
2022-08-22T23:34:16.755Z,19.23
2022-08-22T23:36:41.795Z,19.16
2022-08-22T23:39:06.806Z,19.12
2022-08-22T23:41:29.474Z,19.27
2022-08-22T23:43:54.341Z,19.28
2022-08-22T23:46:18.855Z,19.30
2022-08-22T23:48:42.302Z,19.27
2022-08-22T23:51:05.503Z,19.26
2022-08-22T23:53:29.110Z,19.26
2022-08-22T23:55:51.714Z,19.22
2022-08-22T23:58:16.076Z,19.27
